sensor_id;sensor_type;location;lat;lon;timestamp;temperature;humidity
5476;DHT22;2760;50.000;9.194;2023-08-17T00:01:39;20.20;99.90
5476;DHT22;2760;50.000;9.194;2023-08-17T00:04:08;20.20;99.90
5476;DHT22;2760;50.000;9.194;2023-08-17T00:06:35;20.20;99.90
5476;DHT22;2760;50.000;9.194;2023-08-17T00:09:03;20.20;99.90
5476;DHT22;2760;50.000;9.194;2023-08-17T00:11:30;19.90;99.90
5476;DHT22;2760;50.000;9.194;2023-08-17T00:13:57;19.80;99.90
5476;DHT22;2760;50.000;9.194;2023-08-17T00:16:25;19.90;99.90
5476;DHT22;2760;50.000;9.194;2023-08-17T00:18:52;17.80;99.90
5476;DHT22;2760;50.000;9.194;2023-08-17T00:21:20;19.80;99.90
5476;DHT22;2760;50.000;9.194;2023-08-17T00:23:47;19.60;99.90
5476;DHT22;2760;50.000;9.194;2023-08-17T00:26:15;19.60;99.90
5476;DHT22;2760;50.000;9.194;2023-08-17T00:28:42;19.50;99.90
5476;DHT22;2760;50.000;9.194;2023-08-17T00:31:10;19.60;99.90
5476;DHT22;2760;50.000;9.194;2023-08-17T00:33:37;19.70;99.90
5476;DHT22;2760;50.000;9.194;2023-08-17T00:36:04;19.60;99.90
5476;DHT22;2760;50.000;9.194;2023-08-17T00:38:34;19.60;99.90
5476;DHT22;2760;50.000;9.194;2023-08-17T00:41:01;19.60;99.90
5476;DHT22;2760;50.000;9.194;2023-08-17T00:43:28;19.70;99.90
5476;DHT22;2760;50.000;9.194;2023-08-17T00:45:55;19.60;99.90
5476;DHT22;2760;50.000;9.194;2023-08-17T00:48:22;19.60;99.90
5476;DHT22;2760;50.000;9.194;2023-08-17T00:50:50;19.60;99.90
5476;DHT22;2760;50.000;9.194;2023-08-17T00:53:19;19.70;99.90
5476;DHT22;2760;50.000;9.194;2023-08-17T00:55:52;19.60;99.90
5476;DHT22;2760;50.000;9.194;2023-08-17T00:58:20;19.50;99.90
5476;DHT22;2760;50.000;9.194;2023-08-17T01:00:47;19.50;99.90
5476;DHT22;2760;50.000;9.194;2023-08-17T01:03:15;19.40;99.90
5476;DHT22;2760;50.000;9.194;2023-08-17T01:05:44;19.40;99.90
5476;DHT22;2760;50.000;9.194;2023-08-17T01:08:11;19.30;99.90
5476;DHT22;2760;50.000;9.194;2023-08-17T01:10:47;19.20;99.90
5476;DHT22;2760;50.000;9.194;2023-08-17T01:13:23;19.20;99.90
5476;DHT22;2760;50.000;9.194;2023-08-17T01:15:55;19.30;99.90
5476;DHT22;2760;50.000;9.194;2023-08-17T01:18:29;19.40;99.90
5476;DHT22;2760;50.000;9.194;2023-08-17T01:20:57;19.40;99.90
5476;DHT22;2760;50.000;9.194;2023-08-17T01:23:26;19.30;99.90
5476;DHT22;2760;50.000;9.194;2023-08-17T01:25:53;19.40;99.90
5476;DHT22;2760;50.000;9.194;2023-08-17T01:28:24;19.30;99.90
5476;DHT22;2760;50.000;9.194;2023-08-17T01:30:55;19.40;99.90
5476;DHT22;2760;50.000;9.194;2023-08-17T01:33:28;19.30;99.90
5476;DHT22;2760;50.000;9.194;2023-08-17T01:36:04;19.40;99.90
5476;DHT22;2760;50.000;9.194;2023-08-17T01:38:36;19.40;99.90
5476;DHT22;2760;50.000;9.194;2023-08-17T01:41:04;19.40;99.90
5476;DHT22;2760;50.000;9.194;2023-08-17T01:43:32;19.40;99.90
5476;DHT22;2760;50.000;9.194;2023-08-17T01:45:59;19.40;99.90
5476;DHT22;2760;50.000;9.194;2023-08-17T01:48:26;19.30;99.90
5476;DHT22;2760;50.000;9.194;2023-08-17T01:50:53;19.40;99.90
5476;DHT22;2760;50.000;9.194;2023-08-17T01:53:21;19.30;99.90
5476;DHT22;2760;50.000;9.194;2023-08-17T01:55:50;19.40;99.90
5476;DHT22;2760;50.000;9.194;2023-08-17T01:58:18;19.20;99.90
5476;DHT22;2760;50.000;9.194;2023-08-17T02:00:45;19.90;99.90
5476;DHT22;2760;50.000;9.194;2023-08-17T02:03:13;19.10;99.90
5476;DHT22;2760;50.000;9.194;2023-08-17T02:05:44;19.00;99.90
5476;DHT22;2760;50.000;9.194;2023-08-17T02:08:13;19.00;99.90
5476;DHT22;2760;50.000;9.194;2023-08-17T02:10:40;19.10;99.90
5476;DHT22;2760;50.000;9.194;2023-08-17T02:13:08;19.00;99.90
5476;DHT22;2760;50.000;9.194;2023-08-17T02:15:38;19.00;99.90
5476;DHT22;2760;50.000;9.194;2023-08-17T02:18:05;19.00;99.90
5476;DHT22;2760;50.000;9.194;2023-08-17T02:20:32;19.00;99.90
5476;DHT22;2760;50.000;9.194;2023-08-17T02:22:59;18.90;99.90
5476;DHT22;2760;50.000;9.194;2023-08-17T02:25:27;18.90;99.90
5476;DHT22;2760;50.000;9.194;2023-08-17T02:28:00;18.90;99.90
5476;DHT22;2760;50.000;9.194;2023-08-17T02:30:32;19.00;99.90
5476;DHT22;2760;50.000;9.194;2023-08-17T02:32:58;19.10;99.90
5476;DHT22;2760;50.000;9.194;2023-08-17T02:35:27;19.20;99.90
5476;DHT22;2760;50.000;9.194;2023-08-17T02:37:54;19.10;99.90
5476;DHT22;2760;50.000;9.194;2023-08-17T02:40:21;19.20;99.90
5476;DHT22;2760;50.000;9.194;2023-08-17T02:42:49;19.40;99.90
5476;DHT22;2760;50.000;9.194;2023-08-17T02:45:16;19.30;99.90
5476;DHT22;2760;50.000;9.194;2023-08-17T02:47:45;19.40;99.90
5476;DHT22;2760;50.000;9.194;2023-08-17T02:50:14;19.40;99.90
5476;DHT22;2760;50.000;9.194;2023-08-17T02:52:42;19.30;99.90
5476;DHT22;2760;50.000;9.194;2023-08-17T02:55:09;19.20;99.90
5476;DHT22;2760;50.000;9.194;2023-08-17T02:57:36;19.30;99.90
5476;DHT22;2760;50.000;9.194;2023-08-17T03:00:04;19.20;99.90
5476;DHT22;2760;50.000;9.194;2023-08-17T03:02:32;19.30;99.90
5476;DHT22;2760;50.000;9.194;2023-08-17T03:05:03;19.30;99.90
5476;DHT22;2760;50.000;9.194;2023-08-17T03:07:30;19.20;99.90
5476;DHT22;2760;50.000;9.194;2023-08-17T03:09:57;19.20;99.90
5476;DHT22;2760;50.000;9.194;2023-08-17T03:12:24;19.00;99.90
5476;DHT22;2760;50.000;9.194;2023-08-17T03:14:51;19.00;99.90
5476;DHT22;2760;50.000;9.194;2023-08-17T03:17:18;18.80;99.90
5476;DHT22;2760;50.000;9.194;2023-08-17T03:19:46;18.80;99.90
5476;DHT22;2760;50.000;9.194;2023-08-17T03:22:17;18.80;99.90
5476;DHT22;2760;50.000;9.194;2023-08-17T03:24:43;18.80;99.90
5476;DHT22;2760;50.000;9.194;2023-08-17T03:27:12;18.90;99.90
5476;DHT22;2760;50.000;9.194;2023-08-17T03:29:39;19.00;99.90
5476;DHT22;2760;50.000;9.194;2023-08-17T03:32:06;19.00;99.90
5476;DHT22;2760;50.000;9.194;2023-08-17T03:34:33;19.10;99.90
5476;DHT22;2760;50.000;9.194;2023-08-17T03:37:03;19.00;99.90
5476;DHT22;2760;50.000;9.194;2023-08-17T03:39:31;19.10;99.90
5476;DHT22;2760;50.000;9.194;2023-08-17T03:41:58;19.00;99.90
5476;DHT22;2760;50.000;9.194;2023-08-17T03:44:25;19.00;99.90
5476;DHT22;2760;50.000;9.194;2023-08-17T03:46:52;19.00;99.90
5476;DHT22;2760;50.000;9.194;2023-08-17T03:49:19;19.00;99.90
5476;DHT22;2760;50.000;9.194;2023-08-17T03:51:46;19.00;99.90
5476;DHT22;2760;50.000;9.194;2023-08-17T03:54:13;19.00;99.90
5476;DHT22;2760;50.000;9.194;2023-08-17T03:56:42;19.00;99.90
5476;DHT22;2760;50.000;9.194;2023-08-17T03:59:09;18.90;99.90
5476;DHT22;2760;50.000;9.194;2023-08-17T04:01:36;18.90;99.90
5476;DHT22;2760;50.000;9.194;2023-08-17T04:04:03;18.80;99.90
5476;DHT22;2760;50.000;9.194;2023-08-17T04:06:30;18.80;99.90
5476;DHT22;2760;50.000;9.194;2023-08-17T04:08:58;16.90;99.90
5476;DHT22;2760;50.000;9.194;2023-08-17T04:11:26;18.80;99.90
5476;DHT22;2760;50.000;9.194;2023-08-17T04:13:54;18.80;99.90
5476;DHT22;2760;50.000;9.194;2023-08-17T04:16:21;18.80;99.90
5476;DHT22;2760;50.000;9.194;2023-08-17T04:18:48;18.80;99.90
5476;DHT22;2760;50.000;9.194;2023-08-17T04:21:15;18.80;99.90
5476;DHT22;2760;50.000;9.194;2023-08-17T04:23:42;18.80;99.90
5476;DHT22;2760;50.000;9.194;2023-08-17T04:26:09;18.70;99.90
5476;DHT22;2760;50.000;9.194;2023-08-17T04:28:37;18.90;99.90
5476;DHT22;2760;50.000;9.194;2023-08-17T04:31:06;18.90;99.90
5476;DHT22;2760;50.000;9.194;2023-08-17T04:33:37;18.90;99.90
5476;DHT22;2760;50.000;9.194;2023-08-17T04:36:05;18.90;99.90
5476;DHT22;2760;50.000;9.194;2023-08-17T04:38:32;18.90;99.90
5476;DHT22;2760;50.000;9.194;2023-08-17T04:40:59;18.80;99.90
5476;DHT22;2760;50.000;9.194;2023-08-17T04:43:29;18.70;99.90
5476;DHT22;2760;50.000;9.194;2023-08-17T04:45:56;18.70;99.90
5476;DHT22;2760;50.000;9.194;2023-08-17T04:48:25;18.60;99.90
5476;DHT22;2760;50.000;9.194;2023-08-17T04:50:52;18.70;99.90
5476;DHT22;2760;50.000;9.194;2023-08-17T04:53:19;18.70;99.90
5476;DHT22;2760;50.000;9.194;2023-08-17T04:55:46;18.60;99.90
5476;DHT22;2760;50.000;9.194;2023-08-17T04:58:13;18.60;99.90
5476;DHT22;2760;50.000;9.194;2023-08-17T05:00:41;18.60;99.90
5476;DHT22;2760;50.000;9.194;2023-08-17T05:03:08;19.80;99.90
5476;DHT22;2760;50.000;9.194;2023-08-17T05:05:41;18.50;99.90
5476;DHT22;2760;50.000;9.194;2023-08-17T05:08:10;18.80;99.90
5476;DHT22;2760;50.000;9.194;2023-08-17T05:10:37;18.50;99.90
5476;DHT22;2760;50.000;9.194;2023-08-17T05:13:04;18.20;99.90
5476;DHT22;2760;50.000;9.194;2023-08-17T05:15:31;18.50;99.90
5476;DHT22;2760;50.000;9.194;2023-08-17T05:17:59;18.50;99.90
5476;DHT22;2760;50.000;9.194;2023-08-17T05:20:27;18.40;99.90
5476;DHT22;2760;50.000;9.194;2023-08-17T05:22:56;18.50;99.90
5476;DHT22;2760;50.000;9.194;2023-08-17T05:25:23;18.50;99.90
5476;DHT22;2760;50.000;9.194;2023-08-17T05:27:52;18.50;99.90
5476;DHT22;2760;50.000;9.194;2023-08-17T05:30:20;18.50;99.90
5476;DHT22;2760;50.000;9.194;2023-08-17T05:32:47;18.50;99.90
5476;DHT22;2760;50.000;9.194;2023-08-17T05:35:14;18.70;99.90
5476;DHT22;2760;50.000;9.194;2023-08-17T05:37:41;18.50;99.90
5476;DHT22;2760;50.000;9.194;2023-08-17T05:40:11;18.60;99.90
5476;DHT22;2760;50.000;9.194;2023-08-17T05:42:38;18.80;99.90
5476;DHT22;2760;50.000;9.194;2023-08-17T05:45:06;18.80;99.90
5476;DHT22;2760;50.000;9.194;2023-08-17T05:47:33;18.90;99.90
5476;DHT22;2760;50.000;9.194;2023-08-17T05:50:00;19.00;99.90
5476;DHT22;2760;50.000;9.194;2023-08-17T05:52:27;17.70;99.90
5476;DHT22;2760;50.000;9.194;2023-08-17T05:54:55;19.20;99.90
5476;DHT22;2760;50.000;9.194;2023-08-17T05:57:23;19.20;99.90
5476;DHT22;2760;50.000;9.194;2023-08-17T05:59:51;19.20;99.90
5476;DHT22;2760;50.000;9.194;2023-08-17T06:02:19;19.20;99.90
5476;DHT22;2760;50.000;9.194;2023-08-17T06:04:47;19.00;99.90
5476;DHT22;2760;50.000;9.194;2023-08-17T06:07:14;19.00;99.90
5476;DHT22;2760;50.000;9.194;2023-08-17T06:09:41;19.10;99.90
5476;DHT22;2760;50.000;9.194;2023-08-17T06:12:08;19.20;99.90
5476;DHT22;2760;50.000;9.194;2023-08-17T06:14:37;19.30;99.90
5476;DHT22;2760;50.000;9.194;2023-08-17T06:17:04;19.40;99.90
5476;DHT22;2760;50.000;9.194;2023-08-17T06:19:31;19.40;99.90
5476;DHT22;2760;50.000;9.194;2023-08-17T06:21:59;19.50;99.90
5476;DHT22;2760;50.000;9.194;2023-08-17T06:24:26;19.70;99.90
5476;DHT22;2760;50.000;9.194;2023-08-17T06:26:53;19.80;99.90
5476;DHT22;2760;50.000;9.194;2023-08-17T06:29:20;20.10;99.90
5476;DHT22;2760;50.000;9.194;2023-08-17T06:31:48;20.30;99.90
5476;DHT22;2760;50.000;9.194;2023-08-17T06:34:15;20.50;99.90
5476;DHT22;2760;50.000;9.194;2023-08-17T06:36:56;20.70;99.90
5476;DHT22;2760;50.000;9.194;2023-08-17T06:39:24;20.90;99.90
5476;DHT22;2760;50.000;9.194;2023-08-17T06:41:51;21.20;99.90
5476;DHT22;2760;50.000;9.194;2023-08-17T06:44:18;21.50;99.90
5476;DHT22;2760;50.000;9.194;2023-08-17T06:46:45;21.40;99.90
5476;DHT22;2760;50.000;9.194;2023-08-17T06:49:14;21.30;99.90
5476;DHT22;2760;50.000;9.194;2023-08-17T06:51:42;21.40;99.90
5476;DHT22;2760;50.000;9.194;2023-08-17T06:54:10;21.60;99.90
5476;DHT22;2760;50.000;9.194;2023-08-17T06:56:38;21.80;99.90
5476;DHT22;2760;50.000;9.194;2023-08-17T06:59:06;21.90;99.90
5476;DHT22;2760;50.000;9.194;2023-08-17T07:01:33;22.00;99.90
5476;DHT22;2760;50.000;9.194;2023-08-17T07:04:00;22.00;99.90
5476;DHT22;2760;50.000;9.194;2023-08-17T07:06:29;21.80;99.90
5476;DHT22;2760;50.000;9.194;2023-08-17T07:08:56;21.90;99.90
5476;DHT22;2760;50.000;9.194;2023-08-17T07:11:24;21.50;99.90
5476;DHT22;2760;50.000;9.194;2023-08-17T07:13:51;21.60;99.90
5476;DHT22;2760;50.000;9.194;2023-08-17T07:16:19;21.60;99.90
5476;DHT22;2760;50.000;9.194;2023-08-17T07:18:46;21.60;99.90
5476;DHT22;2760;50.000;9.194;2023-08-17T07:21:13;22.00;99.90
5476;DHT22;2760;50.000;9.194;2023-08-17T07:23:44;22.30;99.90
5476;DHT22;2760;50.000;9.194;2023-08-17T07:26:13;22.20;99.90
5476;DHT22;2760;50.000;9.194;2023-08-17T07:28:40;22.60;99.90
5476;DHT22;2760;50.000;9.194;2023-08-17T07:31:07;23.80;99.90
5476;DHT22;2760;50.000;9.194;2023-08-17T07:33:35;22.20;99.90
5476;DHT22;2760;50.000;9.194;2023-08-17T07:36:02;24.70;99.90
5476;DHT22;2760;50.000;9.194;2023-08-17T07:38:30;22.90;99.90
5476;DHT22;2760;50.000;9.194;2023-08-17T07:40:58;23.10;99.90
5476;DHT22;2760;50.000;9.194;2023-08-17T07:43:26;23.20;99.90
5476;DHT22;2760;50.000;9.194;2023-08-17T07:45:54;23.30;99.90
5476;DHT22;2760;50.000;9.194;2023-08-17T07:48:21;23.70;99.90
5476;DHT22;2760;50.000;9.194;2023-08-17T07:50:49;23.90;99.90
5476;DHT22;2760;50.000;9.194;2023-08-17T07:53:17;24.20;99.90
5476;DHT22;2760;50.000;9.194;2023-08-17T07:55:44;24.20;99.90
5476;DHT22;2760;50.000;9.194;2023-08-17T07:58:13;24.50;99.90
5476;DHT22;2760;50.000;9.194;2023-08-17T08:00:40;24.20;99.90
5476;DHT22;2760;50.000;9.194;2023-08-17T08:03:08;24.40;99.90
5476;DHT22;2760;50.000;9.194;2023-08-17T08:05:35;24.50;99.90
5476;DHT22;2760;50.000;9.194;2023-08-17T08:08:03;25.10;99.90
5476;DHT22;2760;50.000;9.194;2023-08-17T08:10:30;25.30;99.90
5476;DHT22;2760;50.000;9.194;2023-08-17T08:12:58;23.90;99.90
5476;DHT22;2760;50.000;9.194;2023-08-17T08:15:26;25.70;99.90
5476;DHT22;2760;50.000;9.194;2023-08-17T08:17:54;25.70;99.90
5476;DHT22;2760;50.000;9.194;2023-08-17T08:20:21;25.20;99.90
5476;DHT22;2760;50.000;9.194;2023-08-17T08:22:48;25.80;99.90
5476;DHT22;2760;50.000;9.194;2023-08-17T08:25:15;26.20;99.90
5476;DHT22;2760;50.000;9.194;2023-08-17T08:27:42;26.20;99.90
5476;DHT22;2760;50.000;9.194;2023-08-17T08:30:09;26.40;99.90
5476;DHT22;2760;50.000;9.194;2023-08-17T08:32:38;26.40;99.90
5476;DHT22;2760;50.000;9.194;2023-08-17T08:35:06;26.10;99.90
5476;DHT22;2760;50.000;9.194;2023-08-17T08:37:34;26.10;99.90
5476;DHT22;2760;50.000;9.194;2023-08-17T08:40:01;26.20;99.90
5476;DHT22;2760;50.000;9.194;2023-08-17T08:42:29;26.30;99.90
5476;DHT22;2760;50.000;9.194;2023-08-17T08:44:56;26.70;99.90
5476;DHT22;2760;50.000;9.194;2023-08-17T08:47:25;25.30;99.90
5476;DHT22;2760;50.000;9.194;2023-08-17T08:49:59;28.30;99.90
5476;DHT22;2760;50.000;9.194;2023-08-17T08:52:33;26.90;99.90
5476;DHT22;2760;50.000;9.194;2023-08-17T08:55:05;26.50;99.90
5476;DHT22;2760;50.000;9.194;2023-08-17T08:57:34;27.10;99.90
5476;DHT22;2760;50.000;9.194;2023-08-17T09:00:02;27.00;99.90
5476;DHT22;2760;50.000;9.194;2023-08-17T09:02:35;27.10;99.90
5476;DHT22;2760;50.000;9.194;2023-08-17T09:05:05;26.90;99.90
5476;DHT22;2760;50.000;9.194;2023-08-17T09:07:33;26.90;99.90
5476;DHT22;2760;50.000;9.194;2023-08-17T09:10:02;26.00;99.90
5476;DHT22;2760;50.000;9.194;2023-08-17T09:12:35;27.60;99.90
5476;DHT22;2760;50.000;9.194;2023-08-17T09:15:02;26.20;99.90
5476;DHT22;2760;50.000;9.194;2023-08-17T09:17:32;27.80;99.90
5476;DHT22;2760;50.000;9.194;2023-08-17T09:20:00;27.70;99.90
5476;DHT22;2760;50.000;9.194;2023-08-17T09:22:38;28.10;99.90
5476;DHT22;2760;50.000;9.194;2023-08-17T09:25:07;28.00;99.90
5476;DHT22;2760;50.000;9.194;2023-08-17T09:27:36;28.00;99.90
5476;DHT22;2760;50.000;9.194;2023-08-17T09:30:06;28.00;99.90
5476;DHT22;2760;50.000;9.194;2023-08-17T09:32:34;27.80;99.90
5476;DHT22;2760;50.000;9.194;2023-08-17T09:35:02;28.50;99.90
5476;DHT22;2760;50.000;9.194;2023-08-17T09:37:33;28.10;99.90
5476;DHT22;2760;50.000;9.194;2023-08-17T09:40:01;28.50;99.90
5476;DHT22;2760;50.000;9.194;2023-08-17T09:42:28;28.10;99.90
5476;DHT22;2760;50.000;9.194;2023-08-17T09:44:58;28.10;99.90
5476;DHT22;2760;50.000;9.194;2023-08-17T09:47:27;28.20;99.90
5476;DHT22;2760;50.000;9.194;2023-08-17T09:49:56;28.40;99.90
5476;DHT22;2760;50.000;9.194;2023-08-17T09:52:23;28.80;99.90
5476;DHT22;2760;50.000;9.194;2023-08-17T09:55:07;28.70;99.90
5476;DHT22;2760;50.000;9.194;2023-08-17T09:57:37;28.50;99.90
5476;DHT22;2760;50.000;9.194;2023-08-17T10:00:06;28.30;99.90
5476;DHT22;2760;50.000;9.194;2023-08-17T10:02:34;30.40;99.90
5476;DHT22;2760;50.000;9.194;2023-08-17T10:05:04;28.90;99.90
5476;DHT22;2760;50.000;9.194;2023-08-17T10:07:34;28.90;99.90
5476;DHT22;2760;50.000;9.194;2023-08-17T10:10:24;28.90;99.90
5476;DHT22;2760;50.000;9.194;2023-08-17T10:13:09;28.80;99.90
5476;DHT22;2760;50.000;9.194;2023-08-17T10:15:47;29.60;99.90
5476;DHT22;2760;50.000;9.194;2023-08-17T10:18:24;29.20;99.90
5476;DHT22;2760;50.000;9.194;2023-08-17T10:20:59;29.90;99.90
5476;DHT22;2760;50.000;9.194;2023-08-17T10:23:31;29.70;99.90
5476;DHT22;2760;50.000;9.194;2023-08-17T10:26:00;28.30;99.90
5476;DHT22;2760;50.000;9.194;2023-08-17T10:28:29;29.80;99.90
5476;DHT22;2760;50.000;9.194;2023-08-17T10:30:58;29.70;99.90
5476;DHT22;2760;50.000;9.194;2023-08-17T10:33:26;29.80;99.90
5476;DHT22;2760;50.000;9.194;2023-08-17T10:36:00;29.70;99.90
5476;DHT22;2760;50.000;9.194;2023-08-17T10:38:28;28.80;99.90
5476;DHT22;2760;50.000;9.194;2023-08-17T10:41:17;29.70;99.90
5476;DHT22;2760;50.000;9.194;2023-08-17T10:43:56;29.30;99.90
5476;DHT22;2760;50.000;9.194;2023-08-17T10:46:34;30.20;99.90
5476;DHT22;2760;50.000;9.194;2023-08-17T10:49:06;30.70;99.90
5476;DHT22;2760;50.000;9.194;2023-08-17T10:51:34;29.90;99.90
5476;DHT22;2760;50.000;9.194;2023-08-17T10:54:02;29.70;99.90
5476;DHT22;2760;50.000;9.194;2023-08-17T10:56:40;29.90;99.90
5476;DHT22;2760;50.000;9.194;2023-08-17T10:59:24;30.00;99.90
5476;DHT22;2760;50.000;9.194;2023-08-17T11:01:52;27.20;99.90
5476;DHT22;2760;50.000;9.194;2023-08-17T11:04:24;29.20;99.90
5476;DHT22;2760;50.000;9.194;2023-08-17T11:07:04;29.60;99.90
5476;DHT22;2760;50.000;9.194;2023-08-17T11:09:41;30.10;99.90
5476;DHT22;2760;50.000;9.194;2023-08-17T11:15:44;30.70;99.90
5476;DHT22;2760;50.000;9.194;2023-08-17T11:18:15;30.70;99.90
5476;DHT22;2760;50.000;9.194;2023-08-17T11:20:42;30.90;99.90
5476;DHT22;2760;50.000;9.194;2023-08-17T11:23:11;31.30;99.90
5476;DHT22;2760;50.000;9.194;2023-08-17T11:25:39;31.50;99.90
5476;DHT22;2760;50.000;9.194;2023-08-17T11:28:07;31.60;99.90
5476;DHT22;2760;50.000;9.194;2023-08-17T11:30:56;31.40;99.90
5476;DHT22;2760;50.000;9.194;2023-08-17T11:33:26;31.30;99.90
5476;DHT22;2760;50.000;9.194;2023-08-17T11:35:55;31.50;99.90
5476;DHT22;2760;50.000;9.194;2023-08-17T11:38:22;31.60;99.90
5476;DHT22;2760;50.000;9.194;2023-08-17T11:40:50;31.90;99.90
5476;DHT22;2760;50.000;9.194;2023-08-17T11:43:17;31.50;99.90
5476;DHT22;2760;50.000;9.194;2023-08-17T11:45:48;32.00;99.90
5476;DHT22;2760;50.000;9.194;2023-08-17T11:48:16;32.40;99.90
5476;DHT22;2760;50.000;9.194;2023-08-17T11:50:46;31.80;99.90
5476;DHT22;2760;50.000;9.194;2023-08-17T11:53:18;32.30;99.90
5476;DHT22;2760;50.000;9.194;2023-08-17T11:55:46;32.10;99.90
5476;DHT22;2760;50.000;9.194;2023-08-17T11:58:14;32.70;99.90
5476;DHT22;2760;50.000;9.194;2023-08-17T12:00:43;32.80;99.90
5476;DHT22;2760;50.000;9.194;2023-08-17T12:03:26;32.50;99.90
5476;DHT22;2760;50.000;9.194;2023-08-17T12:06:31;33.00;99.90
5476;DHT22;2760;50.000;9.194;2023-08-17T12:08:59;32.70;99.90
5476;DHT22;2760;50.000;9.194;2023-08-17T12:11:27;32.70;99.90
5476;DHT22;2760;50.000;9.194;2023-08-17T12:13:54;32.70;99.90
5476;DHT22;2760;50.000;9.194;2023-08-17T12:16:22;32.50;99.90
5476;DHT22;2760;50.000;9.194;2023-08-17T12:21:20;33.00;99.90
5476;DHT22;2760;50.000;9.194;2023-08-17T12:23:51;32.80;99.90
5476;DHT22;2760;50.000;9.194;2023-08-17T12:28:53;32.70;99.90
5476;DHT22;2760;50.000;9.194;2023-08-17T12:31:23;32.70;99.90
5476;DHT22;2760;50.000;9.194;2023-08-17T12:34:01;32.80;99.90
5476;DHT22;2760;50.000;9.194;2023-08-17T12:36:29;32.20;99.90
5476;DHT22;2760;50.000;9.194;2023-08-17T12:38:57;31.90;99.90
5476;DHT22;2760;50.000;9.194;2023-08-17T12:41:25;31.50;99.90
5476;DHT22;2760;50.000;9.194;2023-08-17T12:46:24;31.50;99.90
5476;DHT22;2760;50.000;9.194;2023-08-17T12:53:47;30.70;99.90
5476;DHT22;2760;50.000;9.194;2023-08-17T12:56:16;30.80;99.90
5476;DHT22;2760;50.000;9.194;2023-08-17T12:58:43;31.00;99.90
5476;DHT22;2760;50.000;9.194;2023-08-17T13:01:11;30.80;99.90
5476;DHT22;2760;50.000;9.194;2023-08-17T13:03:39;30.60;99.90
5476;DHT22;2760;50.000;9.194;2023-08-17T13:06:07;29.90;99.90
5476;DHT22;2760;50.000;9.194;2023-08-17T13:08:38;30.00;99.90
5476;DHT22;2760;50.000;9.194;2023-08-17T13:11:07;30.40;99.90
5476;DHT22;2760;50.000;9.194;2023-08-17T13:13:41;30.70;99.90
5476;DHT22;2760;50.000;9.194;2023-08-17T13:16:09;30.70;99.90
5476;DHT22;2760;50.000;9.194;2023-08-17T13:18:39;30.60;99.90
5476;DHT22;2760;50.000;9.194;2023-08-17T13:21:06;30.50;99.90
5476;DHT22;2760;50.000;9.194;2023-08-17T13:23:34;30.50;99.90
5476;DHT22;2760;50.000;9.194;2023-08-17T13:26:02;30.50;99.90
5476;DHT22;2760;50.000;9.194;2023-08-17T13:28:32;30.50;99.90
5476;DHT22;2760;50.000;9.194;2023-08-17T13:31:06;30.60;99.90
5476;DHT22;2760;50.000;9.194;2023-08-17T13:36:02;30.40;99.90
5476;DHT22;2760;50.000;9.194;2023-08-17T13:38:43;30.40;99.90
5476;DHT22;2760;50.000;9.194;2023-08-17T13:41:26;30.30;99.90
5476;DHT22;2760;50.000;9.194;2023-08-17T13:43:56;30.20;99.90
5476;DHT22;2760;50.000;9.194;2023-08-17T13:46:34;30.40;99.90
5476;DHT22;2760;50.000;9.194;2023-08-17T13:49:02;30.20;99.90
5476;DHT22;2760;50.000;9.194;2023-08-17T13:51:29;30.50;99.90
5476;DHT22;2760;50.000;9.194;2023-08-17T13:53:56;30.50;99.90
5476;DHT22;2760;50.000;9.194;2023-08-17T13:56:25;30.50;99.90
5476;DHT22;2760;50.000;9.194;2023-08-17T13:58:53;30.00;99.90
5476;DHT22;2760;50.000;9.194;2023-08-17T14:01:24;30.20;99.90
5476;DHT22;2760;50.000;9.194;2023-08-17T14:03:53;30.40;99.90
5476;DHT22;2760;50.000;9.194;2023-08-17T14:06:21;30.30;99.90
5476;DHT22;2760;50.000;9.194;2023-08-17T14:08:49;30.40;99.90
5476;DHT22;2760;50.000;9.194;2023-08-17T14:11:18;30.40;99.90
5476;DHT22;2760;50.000;9.194;2023-08-17T14:13:45;32.60;99.90
5476;DHT22;2760;50.000;9.194;2023-08-17T14:18:40;30.40;99.90
5476;DHT22;2760;50.000;9.194;2023-08-17T14:21:10;30.20;99.90
5476;DHT22;2760;50.000;9.194;2023-08-17T14:23:39;30.50;99.90
5476;DHT22;2760;50.000;9.194;2023-08-17T14:26:06;28.80;99.90
5476;DHT22;2760;50.000;9.194;2023-08-17T14:28:35;30.30;99.90
5476;DHT22;2760;50.000;9.194;2023-08-17T14:31:10;30.50;99.90
5476;DHT22;2760;50.000;9.194;2023-08-17T14:36:14;29.30;99.90
5476;DHT22;2760;50.000;9.194;2023-08-17T14:43:59;29.70;99.90
5476;DHT22;2760;50.000;9.194;2023-08-17T14:46:41;29.10;99.90
5476;DHT22;2760;50.000;9.194;2023-08-17T14:49:09;29.40;99.90
5476;DHT22;2760;50.000;9.194;2023-08-17T14:51:45;29.20;99.90
5476;DHT22;2760;50.000;9.194;2023-08-17T14:56:42;28.70;99.90
5476;DHT22;2760;50.000;9.194;2023-08-17T15:01:53;28.70;99.90
5476;DHT22;2760;50.000;9.194;2023-08-17T15:04:25;28.70;99.90
5476;DHT22;2760;50.000;9.194;2023-08-17T15:06:58;29.20;99.90
5476;DHT22;2760;50.000;9.194;2023-08-17T15:12:16;29.20;99.90
5476;DHT22;2760;50.000;9.194;2023-08-17T15:14:44;29.30;99.90
5476;DHT22;2760;50.000;9.194;2023-08-17T15:17:12;29.50;99.90
5476;DHT22;2760;50.000;9.194;2023-08-17T15:22:15;29.20;99.90
5476;DHT22;2760;50.000;9.194;2023-08-17T15:24:43;28.90;99.90
5476;DHT22;2760;50.000;9.194;2023-08-17T15:32:12;29.20;99.90
5476;DHT22;2760;50.000;9.194;2023-08-17T15:34:41;29.00;99.90
5476;DHT22;2760;50.000;9.194;2023-08-17T15:37:22;28.80;99.90
5476;DHT22;2760;50.000;9.194;2023-08-17T15:39:50;27.20;99.90
5476;DHT22;2760;50.000;9.194;2023-08-17T15:44:46;28.50;99.90
5476;DHT22;2760;50.000;9.194;2023-08-17T15:47:13;28.70;99.90
5476;DHT22;2760;50.000;9.194;2023-08-17T15:49:40;28.90;99.90
5476;DHT22;2760;50.000;9.194;2023-08-17T15:52:23;26.40;99.90
5476;DHT22;2760;50.000;9.194;2023-08-17T15:54:51;27.40;99.90
5476;DHT22;2760;50.000;9.194;2023-08-17T16:02:16;28.40;99.90
5476;DHT22;2760;50.000;9.194;2023-08-17T16:04:44;28.50;99.90
5476;DHT22;2760;50.000;9.194;2023-08-17T16:07:12;28.30;99.90
5476;DHT22;2760;50.000;9.194;2023-08-17T16:09:46;28.20;99.90
5476;DHT22;2760;50.000;9.194;2023-08-17T16:12:18;28.20;99.90
5476;DHT22;2760;50.000;9.194;2023-08-17T16:14:46;28.50;99.90
5476;DHT22;2760;50.000;9.194;2023-08-17T16:17:13;28.30;99.90
5476;DHT22;2760;50.000;9.194;2023-08-17T16:22:09;28.40;99.90
5476;DHT22;2760;50.000;9.194;2023-08-17T16:27:07;28.40;99.90
5476;DHT22;2760;50.000;9.194;2023-08-17T16:29:34;28.40;99.90
5476;DHT22;2760;50.000;9.194;2023-08-17T16:32:07;28.40;99.90
5476;DHT22;2760;50.000;9.194;2023-08-17T16:34:40;28.50;99.90
5476;DHT22;2760;50.000;9.194;2023-08-17T16:37:07;28.60;99.90
5476;DHT22;2760;50.000;9.194;2023-08-17T16:39:35;28.60;99.90
5476;DHT22;2760;50.000;9.194;2023-08-17T16:42:03;28.50;99.90
5476;DHT22;2760;50.000;9.194;2023-08-17T16:44:32;28.50;99.90
5476;DHT22;2760;50.000;9.194;2023-08-17T16:46:59;28.50;99.90
5476;DHT22;2760;50.000;9.194;2023-08-17T16:49:26;28.40;99.90
5476;DHT22;2760;50.000;9.194;2023-08-17T16:51:58;28.60;99.90
5476;DHT22;2760;50.000;9.194;2023-08-17T16:54:27;28.60;99.90
5476;DHT22;2760;50.000;9.194;2023-08-17T16:56:55;28.60;99.90
5476;DHT22;2760;50.000;9.194;2023-08-17T16:59:23;28.40;99.90
5476;DHT22;2760;50.000;9.194;2023-08-17T17:01:53;28.50;99.90
5476;DHT22;2760;50.000;9.194;2023-08-17T17:04:21;28.60;99.90
5476;DHT22;2760;50.000;9.194;2023-08-17T17:06:49;28.60;99.90
5476;DHT22;2760;50.000;9.194;2023-08-17T17:09:18;28.60;99.90
5476;DHT22;2760;50.000;9.194;2023-08-17T17:11:46;28.50;99.90